createdAt,value
2018-12-15T00:01:58.154Z,24.25
2018-12-15T00:07:03.527Z,30.32
2018-12-15T00:12:06.766Z,37.35
2018-12-15T00:17:09.973Z,37.98
2018-12-15T00:22:13.199Z,33.85
2018-12-15T00:27:16.543Z,39.35
2018-12-15T00:32:19.878Z,31.05
2018-12-15T00:37:23.294Z,35.48
2018-12-15T00:42:33.591Z,41.00
2018-12-15T00:47:37.835Z,39.60
2018-12-15T00:52:41.051Z,41.37
2018-12-15T00:57:44.286Z,43.90
2018-12-15T01:02:47.515Z,34.30
2018-12-15T01:07:50.925Z,52.35
2018-12-15T01:12:54.161Z,62.90
2018-12-15T01:17:57.372Z,50.58
2018-12-15T01:23:00.523Z,63.05
2018-12-15T01:28:04.551Z,48.85
2018-12-15T01:33:07.763Z,153.18
2018-12-15T01:38:13.948Z,62.23
2018-12-15T01:43:17.226Z,57.98
2018-12-15T01:48:20.458Z,71.77
2018-12-15T01:53:23.724Z,72.53
2018-12-15T01:58:26.947Z,62.67
2018-12-15T02:03:30.153Z,59.18
2018-12-15T02:08:33.421Z,73.60
2018-12-15T02:13:38.720Z,56.35
2018-12-15T02:18:41.988Z,72.70
2018-12-15T02:23:45.233Z,57.08
2018-12-15T02:28:48.493Z,56.13
2018-12-15T02:33:52.618Z,62.62
2018-12-15T02:38:55.984Z,57.10
2018-12-15T02:43:59.193Z,55.70
2018-12-15T02:49:02.546Z,56.05
2018-12-15T02:54:05.916Z,72.40
2018-12-15T02:59:10.216Z,57.45
2018-12-15T03:04:13.413Z,63.92
2018-12-15T03:09:18.876Z,68.80
2018-12-15T03:14:22.173Z,71.55
2018-12-15T03:19:25.437Z,67.70
2018-12-15T03:24:29.683Z,77.20
2018-12-15T03:29:33.033Z,80.12
2018-12-15T03:34:36.508Z,106.47
2018-12-15T03:39:40.674Z,101.42
2018-12-15T03:44:44.205Z,94.75
2018-12-15T03:49:47.367Z,90.03
2018-12-15T03:54:50.497Z,86.67
2018-12-15T03:59:53.919Z,109.17
2018-12-15T04:04:57.368Z,139.22
2018-12-15T04:10:03.587Z,147.55
2018-12-15T04:15:06.924Z,127.87
2018-12-15T04:20:10.172Z,147.13
2018-12-15T04:25:13.365Z,125.47
2018-12-15T04:30:16.966Z,138.22
2018-12-15T04:35:20.119Z,166.88
2018-12-15T04:40:23.735Z,157.93
2018-12-15T04:45:26.951Z,149.25
2018-12-15T04:50:30.133Z,216.12
2018-12-15T04:55:33.271Z,120.00
2018-12-15T05:00:36.553Z,132.70
2018-12-15T05:05:39.779Z,165.05
2018-12-15T05:10:44.030Z,212.42
2018-12-15T05:15:47.272Z,215.45
2018-12-15T05:20:50.522Z,194.75
2018-12-15T05:25:53.804Z,124.10
2018-12-15T05:30:57.040Z,162.10
2018-12-15T05:36:00.401Z,195.65
2018-12-15T05:41:03.702Z,154.97
2018-12-15T05:46:06.881Z,152.75
2018-12-15T05:51:10.070Z,122.30
2018-12-15T05:56:13.368Z,163.03
2018-12-15T06:01:16.567Z,184.45
2018-12-15T06:06:20.379Z,162.30
2018-12-15T06:11:23.738Z,168.25
2018-12-15T06:16:27.191Z,153.07
2018-12-15T06:21:30.469Z,175.30
2018-12-15T06:26:33.774Z,115.37
2018-12-15T06:31:36.985Z,177.32
2018-12-15T06:36:40.487Z,206.25
2018-12-15T06:41:44.120Z,282.07
2018-12-15T06:46:47.322Z,361.57
2018-12-15T06:51:50.477Z,535.67
2018-12-15T06:56:53.872Z,420.82
2018-12-15T07:01:57.140Z,426.55
2018-12-15T07:07:01.281Z,416.95
2018-12-15T07:12:04.763Z,375.62
2018-12-15T07:17:08.376Z,300.38
2018-12-15T07:22:11.605Z,283.95
2018-12-15T07:27:14.869Z,323.95
2018-12-15T07:32:18.030Z,431.55
2018-12-15T07:37:21.334Z,466.35
2018-12-15T07:42:25.815Z,596.55
2018-12-15T07:47:30.351Z,492.77
2018-12-15T07:52:33.644Z,392.18
2018-12-15T07:57:36.881Z,448.67
2018-12-15T08:02:40.185Z,840.35
2018-12-15T08:07:43.503Z,297.10
2018-12-15T08:12:48.835Z,362.82
2018-12-15T08:17:52.074Z,487.75
2018-12-15T08:22:55.331Z,248.03
2018-12-15T08:27:58.637Z,537.00
2018-12-15T08:33:01.891Z,231.85
2018-12-15T08:38:05.355Z,198.75
2018-12-15T08:43:08.641Z,227.22
2018-12-15T08:48:11.903Z,182.05
2018-12-15T08:53:15.322Z,185.57
2018-12-15T08:58:18.466Z,280.73
2018-12-15T09:03:21.709Z,448.23
2018-12-15T09:08:25.696Z,193.97
2018-12-15T09:13:29.393Z,270.80
2018-12-15T09:18:32.643Z,252.03
2018-12-15T09:23:37.213Z,316.77
2018-12-15T09:28:40.714Z,211.22
2018-12-15T09:33:43.933Z,310.80
2018-12-15T09:38:47.179Z,321.20
2018-12-15T09:43:50.560Z,272.37
2018-12-15T09:48:55.985Z,383.82
2018-12-15T09:54:02.015Z,265.00
2018-12-15T09:59:05.993Z,161.50
2018-12-15T10:04:09.226Z,227.72
2018-12-15T10:09:13.804Z,178.18
2018-12-15T10:14:17.208Z,155.30
2018-12-15T10:19:24.297Z,132.05
2018-12-15T10:24:26.337Z,221.93
2018-12-15T10:29:34.926Z,192.95
2018-12-15T10:34:38.098Z,140.75
2018-12-15T10:39:41.392Z,149.35
2018-12-15T10:44:44.763Z,182.65
2018-12-15T10:49:48.246Z,213.18
2018-12-15T10:54:53.514Z,208.75
2018-12-15T10:59:56.703Z,248.47
2018-12-15T11:05:00.944Z,425.40
2018-12-15T11:10:04.861Z,169.15
2018-12-15T11:15:09.477Z,194.00
2018-12-15T11:20:12.944Z,262.45
2018-12-15T11:25:16.184Z,213.97
2018-12-15T11:30:19.427Z,198.30
2018-12-15T11:35:22.784Z,267.73
2018-12-15T11:40:26.623Z,199.57
2018-12-15T11:45:30.855Z,175.18
2018-12-15T11:50:34.261Z,176.97
2018-12-15T11:55:37.455Z,189.43
2018-12-15T12:00:40.960Z,231.82
2018-12-15T12:05:44.226Z,388.70
2018-12-15T12:10:47.576Z,317.82
2018-12-15T12:15:50.911Z,471.40
2018-12-15T12:20:54.567Z,493.80
2018-12-15T12:25:57.865Z,447.40
2018-12-15T12:31:03.190Z,272.73
2018-12-15T12:36:06.552Z,567.27
2018-12-15T12:41:11.666Z,363.65
2018-12-15T12:46:16.896Z,213.77
2018-12-15T12:51:20.308Z,331.90
2018-12-15T12:56:23.614Z,341.08
2018-12-15T13:01:26.875Z,316.60
2018-12-15T13:06:30.253Z,428.92
2018-12-15T13:11:33.566Z,527.10
2018-12-15T13:16:36.965Z,342.95
2018-12-15T13:21:40.166Z,376.75
2018-12-15T13:26:43.457Z,330.43
2018-12-15T13:31:46.730Z,357.00
2018-12-15T13:36:49.991Z,333.52
2018-12-15T13:41:53.207Z,311.75
2018-12-15T13:46:56.553Z,458.07
2018-12-15T13:51:59.868Z,557.92
2018-12-15T13:57:03.090Z,457.58
2018-12-15T14:02:06.331Z,408.40
2018-12-15T14:07:09.620Z,344.77
2018-12-15T14:12:12.910Z,360.23
2018-12-15T14:17:17.272Z,298.43
2018-12-15T14:22:20.972Z,318.90
2018-12-15T14:27:24.255Z,298.45
2018-12-15T14:32:27.628Z,212.55
2018-12-15T14:37:30.885Z,249.67
2018-12-15T14:42:34.246Z,533.12
2018-12-15T14:47:37.651Z,182.47
2018-12-15T14:52:40.945Z,242.72
2018-12-15T14:57:44.222Z,274.20
2018-12-15T15:02:47.358Z,389.27
2018-12-15T15:07:50.545Z,401.63
2018-12-15T15:12:53.795Z,408.25
2018-12-15T15:17:57.111Z,386.70
2018-12-15T15:23:00.930Z,317.13
2018-12-15T15:28:04.557Z,363.65
2018-12-15T15:33:08.168Z,394.45
2018-12-15T15:38:12.027Z,357.50
2018-12-15T15:43:15.336Z,387.17
2018-12-15T15:48:18.890Z,411.52
2018-12-15T15:53:22.107Z,437.20
2018-12-15T15:58:25.414Z,458.60
2018-12-15T16:03:28.923Z,439.45
2018-12-15T16:08:32.440Z,414.30
2018-12-15T16:13:35.602Z,382.48
2018-12-15T16:18:38.982Z,375.87
2018-12-15T16:23:42.259Z,376.20
2018-12-15T16:28:45.603Z,434.55
2018-12-15T16:33:48.991Z,421.77
2018-12-15T16:38:52.276Z,419.05
2018-12-15T16:43:55.775Z,363.90
2018-12-15T16:48:59.112Z,414.45
2018-12-15T16:54:02.510Z,491.23
2018-12-15T16:59:05.995Z,196.18
2018-12-15T17:04:09.356Z,282.15
2018-12-15T17:09:12.665Z,148.15
2018-12-15T17:14:15.984Z,289.98
2018-12-15T17:19:20.095Z,300.68
2018-12-15T17:24:24.412Z,886.03
2018-12-15T17:29:28.078Z,433.48
2018-12-15T17:34:31.946Z,356.82
2018-12-15T17:39:35.343Z,245.88
2018-12-15T17:44:38.735Z,308.75
2018-12-15T17:49:42.299Z,341.88
2018-12-15T17:54:45.760Z,359.90
2018-12-15T17:59:49.100Z,328.55
2018-12-15T18:04:52.427Z,294.02
2018-12-15T18:09:55.926Z,245.75
2018-12-15T18:14:59.276Z,255.92
2018-12-15T18:20:02.798Z,353.58
2018-12-15T18:25:07.009Z,134.25
2018-12-15T18:30:11.401Z,154.93
2018-12-15T18:35:14.920Z,151.78
2018-12-15T18:40:20.463Z,123.40
2018-12-15T18:45:23.858Z,180.42
2018-12-15T18:50:28.269Z,205.98
2018-12-15T18:55:31.536Z,194.02
2018-12-15T19:00:35.761Z,193.65
2018-12-15T19:05:39.225Z,171.35
2018-12-15T19:10:42.496Z,221.03
2018-12-15T19:15:46.307Z,240.87
2018-12-15T19:20:50.038Z,277.77
2018-12-15T19:25:53.409Z,266.23
2018-12-15T19:30:57.624Z,357.65
2018-12-15T19:36:00.899Z,222.33
2018-12-15T19:41:04.452Z,243.50
2018-12-15T19:46:07.835Z,243.02
2018-12-15T19:51:11.389Z,253.98
2018-12-15T19:56:15.044Z,208.02
2018-12-15T20:01:18.560Z,229.32
2018-12-15T20:06:22.594Z,304.38
2018-12-15T20:11:26.199Z,234.87
2018-12-15T20:16:29.580Z,312.48
2018-12-15T20:21:35.985Z,246.10
2018-12-15T20:26:38.391Z,214.15
2018-12-15T20:31:41.812Z,251.73
2018-12-15T20:36:45.126Z,221.57
2018-12-15T20:41:48.421Z,196.32
2018-12-15T20:46:51.579Z,225.65
2018-12-15T20:51:55.535Z,252.28
2018-12-15T20:56:59.053Z,206.75
2018-12-15T21:02:02.665Z,211.92
2018-12-15T21:07:05.959Z,131.47
2018-12-15T21:12:09.355Z,147.60
2018-12-15T21:17:12.733Z,141.95
2018-12-15T21:22:16.027Z,194.93
2018-12-15T21:27:19.441Z,182.17
2018-12-15T21:32:22.905Z,166.30
2018-12-15T21:37:26.442Z,188.90
2018-12-15T21:42:29.959Z,160.57
2018-12-15T21:47:33.361Z,220.27
2018-12-15T21:52:36.823Z,226.90
2018-12-15T21:57:39.989Z,187.10
2018-12-15T22:02:43.315Z,220.35
2018-12-15T22:07:46.550Z,143.75
2018-12-15T22:12:49.819Z,154.35
2018-12-15T22:17:53.052Z,162.70
2018-12-15T22:22:56.293Z,164.88
2018-12-15T22:27:59.585Z,119.28
2018-12-15T22:33:02.812Z,141.55
2018-12-15T22:38:06.189Z,100.35
2018-12-15T22:43:10.449Z,90.95
2018-12-15T22:48:13.771Z,110.45
2018-12-15T22:53:17.100Z,139.72
2018-12-15T22:58:20.254Z,89.30
2018-12-15T23:03:23.466Z,140.45
2018-12-15T23:08:26.860Z,164.00
2018-12-15T23:13:30.131Z,94.90
2018-12-15T23:18:33.385Z,88.58
2018-12-15T23:23:36.555Z,59.65
2018-12-15T23:28:39.800Z,89.58
2018-12-15T23:33:43.023Z,179.38
2018-12-15T23:38:46.302Z,140.12
2018-12-15T23:43:49.400Z,124.07
2018-12-15T23:48:52.668Z,114.62
2018-12-15T23:53:55.956Z,107.83
2018-12-15T23:58:59.147Z,52.27
